Terminal Aerodrome Forecast
Issued by NWS Upton, NY

Home | Current Version | Previous Version | Text Only | Print | Product List | Glossary On
Versions: 1 2 3 4 5 6 7 8 9 10 11 12 13 14 15 16 17 18 19 20 21 22 23 24 25 26 27 28 29 30 31
000
FTUS41 KOKX 221700
TAFEWR
TAF
KEWR 221732Z 2218/2324 30016G26KT P6SM BKN040
     FM222300 32013G21KT P6SM SCT040
     FM230200 32010KT P6SM SKC
     FM230800 35008KT P6SM SKC
     FM231900 28008KT P6SM FEW070=

USA.gov is the U.S. government's official web portal to all federal, state and local government web resources and services.